createdAt,value
2023-04-14T00:02:24.249Z,97472.56
2023-04-14T00:04:54.104Z,97488.28
2023-04-14T00:07:20.804Z,97505.78
2023-04-14T00:09:47.265Z,97501.34
2023-04-14T00:12:13.700Z,97494.75
2023-04-14T00:14:40.192Z,97495.97
2023-04-14T00:17:06.625Z,97495.81
2023-04-14T00:19:35.026Z,97479.06
2023-04-14T00:22:01.483Z,97498.19
2023-04-14T00:24:27.945Z,97494.53
2023-04-14T00:26:54.696Z,97495.44
2023-04-14T00:29:21.118Z,97496.22
2023-04-14T00:31:47.555Z,97498.72
2023-04-14T00:34:14.050Z,97487.69
2023-04-14T00:36:40.599Z,97492.78
2023-04-14T00:39:07.107Z,97487.53
2023-04-14T00:41:41.435Z,97500.56
2023-04-14T00:44:07.892Z,97486.38
2023-04-14T00:46:35.820Z,97494.97
2023-04-14T00:49:02.816Z,97491.00
2023-04-14T00:51:29.618Z,97481.25
2023-04-14T00:53:56.795Z,97499.06
2023-04-14T00:56:26.333Z,97484.09
2023-04-14T00:58:53.622Z,97493.00
2023-04-14T01:01:20.914Z,97492.47
2023-04-14T01:03:48.259Z,97497.44
2023-04-14T01:06:15.045Z,97496.59
2023-04-14T01:08:41.590Z,97499.41
2023-04-14T01:11:14.201Z,97497.25
2023-04-14T01:13:57.236Z,97485.19
2023-04-14T01:16:38.319Z,97489.16
2023-04-14T01:19:42.470Z,97493.59
2023-04-14T01:22:10.399Z,97485.00
2023-04-14T01:24:39.922Z,97494.22
2023-04-14T01:27:45.474Z,97488.59
2023-04-14T01:30:14.579Z,97485.31
2023-04-14T01:32:44.695Z,97483.09
2023-04-14T01:35:18.809Z,97485.41
2023-04-14T01:37:49.465Z,97471.75
2023-04-14T01:40:18.401Z,97483.00
2023-04-14T01:42:48.625Z,97479.41
2023-04-14T01:45:22.958Z,97477.06
2023-04-14T01:47:51.638Z,97483.00
2023-04-14T01:50:20.619Z,97461.72
2023-04-14T01:52:51.394Z,97478.38
2023-04-14T01:55:20.012Z,97479.16
2023-04-14T01:57:52.796Z,97477.56
2023-04-14T02:00:20.808Z,97464.53
2023-04-14T02:02:50.274Z,97468.69
2023-04-14T02:05:18.374Z,97474.28
2023-04-14T02:07:47.301Z,97464.72
2023-04-14T02:10:16.170Z,97458.91
2023-04-14T02:12:43.283Z,97469.78
2023-04-14T02:15:15.872Z,97478.03
2023-04-14T02:17:44.349Z,97464.38
2023-04-14T02:20:14.924Z,97466.97
2023-04-14T02:22:44.590Z,97463.09
2023-04-14T02:25:12.952Z,97460.03
2023-04-14T02:27:53.012Z,97469.63
2023-04-14T02:30:27.439Z,97465.00
2023-04-14T02:33:01.406Z,97461.88
2023-04-14T02:35:32.036Z,97471.13
2023-04-14T02:38:08.289Z,97464.03
2023-04-14T02:40:43.780Z,97472.94
2023-04-14T02:43:31.635Z,97469.84
2023-04-14T02:46:02.925Z,97466.41
2023-04-14T02:48:33.886Z,97449.25
2023-04-14T02:51:01.873Z,97453.72
2023-04-14T02:53:28.714Z,97448.59
2023-04-14T02:55:55.834Z,97460.97
2023-04-14T02:58:22.583Z,97448.75
2023-04-14T03:00:50.303Z,97443.00
2023-04-14T03:03:17.584Z,97452.22
2023-04-14T03:05:48.682Z,97456.88
2023-04-14T03:08:16.668Z,97452.91
2023-04-14T03:10:46.360Z,97454.53
2023-04-14T03:13:16.316Z,97433.94
2023-04-14T03:15:44.816Z,97445.81
2023-04-14T03:18:15.887Z,97441.19
2023-04-14T03:20:45.319Z,97434.25
2023-04-14T03:23:14.781Z,97432.78
2023-04-14T03:25:45.004Z,97429.13
2023-04-14T03:28:19.645Z,97424.53
2023-04-14T03:30:50.613Z,97435.41
2023-04-14T03:33:21.883Z,97428.97
2023-04-14T03:35:50.565Z,97419.88
2023-04-14T03:38:17.723Z,97422.56
2023-04-14T03:40:47.801Z,97420.88
2023-04-14T03:43:22.666Z,97425.63
2023-04-14T03:45:51.648Z,97426.09
2023-04-14T03:48:20.308Z,97423.63
2023-04-14T03:50:51.565Z,97406.94
2023-04-14T03:53:19.304Z,97415.25
2023-04-14T03:55:51.490Z,97405.66
2023-04-14T03:58:18.748Z,97418.47
2023-04-14T04:00:49.124Z,97397.94
2023-04-14T04:03:17.785Z,97410.78
2023-04-14T04:05:47.748Z,97404.19
2023-04-14T04:08:17.309Z,97412.34
2023-04-14T04:10:47.520Z,97401.19
2023-04-14T04:13:20.594Z,97406.75
2023-04-14T04:15:53.680Z,97400.28
2023-04-14T04:18:20.933Z,97399.91
2023-04-14T04:20:49.111Z,97383.59
2023-04-14T04:23:21.693Z,97417.88
2023-04-14T04:25:52.927Z,97410.03
2023-04-14T04:28:20.013Z,97405.34
2023-04-14T04:30:48.854Z,97404.31
2023-04-14T04:33:18.764Z,97405.72
2023-04-14T04:35:48.827Z,97399.97
2023-04-14T04:38:15.459Z,97388.44
2023-04-14T04:40:42.012Z,97398.97
2023-04-14T04:43:08.507Z,97402.72
2023-04-14T04:45:58.310Z,97411.13
2023-04-14T04:48:25.661Z,97407.94
2023-04-14T04:50:52.144Z,97403.34
2023-04-14T04:53:20.358Z,97398.69
2023-04-14T04:55:46.832Z,97400.97
2023-04-14T04:58:13.366Z,97409.84
2023-04-14T05:00:39.919Z,97418.69
2023-04-14T05:03:06.705Z,97415.22
2023-04-14T05:05:37.248Z,97412.63
2023-04-14T05:08:04.146Z,97423.66
2023-04-14T05:10:30.813Z,97417.56
2023-04-14T05:12:57.304Z,97419.91
2023-04-14T05:15:23.742Z,97418.91
2023-04-14T05:17:53.832Z,97419.91
2023-04-14T05:20:23.355Z,97408.91
2023-04-14T05:22:53.361Z,97419.41
2023-04-14T05:25:21.273Z,97405.28
2023-04-14T05:27:47.772Z,97407.78
2023-04-14T05:30:14.467Z,97413.44
2023-04-14T05:32:41.314Z,97386.28
2023-04-14T05:35:08.706Z,97400.66
2023-04-14T05:37:36.303Z,97402.66
2023-04-14T05:40:04.057Z,97410.22
2023-04-14T05:42:30.825Z,97388.53
2023-04-14T05:44:57.331Z,97391.53
2023-04-14T05:47:23.796Z,97391.06
2023-04-14T05:49:54.999Z,97394.16
2023-04-14T05:52:24.609Z,97395.50
2023-04-14T05:54:52.129Z,97389.91
2023-04-14T05:57:18.562Z,97396.72
2023-04-14T05:59:45.046Z,97392.94
2023-04-14T06:02:11.611Z,97373.22
2023-04-14T06:04:38.277Z,97378.69
2023-04-14T06:07:04.879Z,97386.44
2023-04-14T06:09:31.698Z,97382.50
2023-04-14T06:11:58.179Z,97391.41
2023-04-14T06:14:26.988Z,97389.09
2023-04-14T06:16:54.904Z,97388.63
2023-04-14T06:19:22.202Z,97385.84
2023-04-14T06:21:52.201Z,97368.53
2023-04-14T06:24:19.709Z,97367.03
2023-04-14T06:26:46.441Z,97357.78
2023-04-14T06:29:13.182Z,97363.91
2023-04-14T06:31:39.826Z,97358.97
2023-04-14T06:34:06.375Z,97345.59
2023-04-14T06:36:32.919Z,97340.97
2023-04-14T06:39:00.710Z,97330.56
2023-04-14T06:41:27.338Z,97333.81
2023-04-14T06:43:53.776Z,97340.06
2023-04-14T06:46:21.739Z,97341.72
2023-04-14T06:48:48.276Z,97329.16
2023-04-14T06:51:14.810Z,97325.63
2023-04-14T06:53:41.431Z,97309.97
2023-04-14T06:56:08.260Z,97323.56
2023-04-14T06:58:34.775Z,97307.22
2023-04-14T07:01:02.918Z,97322.31
2023-04-14T07:03:31.220Z,97335.31
2023-04-14T07:06:11.721Z,97330.75
2023-04-14T07:08:40.569Z,97324.06
2023-04-14T07:11:10.356Z,97330.44
2023-04-14T07:13:38.199Z,97345.78
2023-04-14T07:16:08.408Z,97331.22
2023-04-14T07:18:35.694Z,97330.75
2023-04-14T07:21:02.736Z,97330.97
2023-04-14T07:23:30.391Z,97328.88
2023-04-14T07:25:58.950Z,97327.91
2023-04-14T07:28:26.886Z,97325.75
2023-04-14T07:30:53.554Z,97322.28
2023-04-14T07:33:25.272Z,97321.59
2023-04-14T07:36:02.089Z,97320.41
2023-04-14T07:38:29.728Z,97313.94
2023-04-14T07:40:56.352Z,97319.63
2023-04-14T07:43:23.189Z,97289.94
2023-04-14T07:45:52.137Z,97312.28
2023-04-14T07:48:21.777Z,97285.66
2023-04-14T07:50:50.771Z,97291.63
2023-04-14T07:53:17.283Z,97291.22
2023-04-14T07:55:43.808Z,97285.53
2023-04-14T07:58:15.386Z,97287.94
2023-04-14T08:00:42.184Z,97293.53
2023-04-14T08:03:10.203Z,97275.88
2023-04-14T08:05:37.837Z,97271.66
2023-04-14T08:08:04.722Z,97283.38
2023-04-14T08:10:31.228Z,97271.84
2023-04-14T08:12:57.837Z,97278.25
2023-04-14T08:15:24.444Z,97273.50
2023-04-14T08:17:53.919Z,97278.72
2023-04-14T08:20:23.613Z,97279.00
2023-04-14T08:22:51.726Z,97284.81
2023-04-14T08:25:18.321Z,97264.22
2023-04-14T08:27:44.882Z,97269.47
2023-04-14T08:30:11.882Z,97271.22
2023-04-14T08:32:38.491Z,97264.50
2023-04-14T08:35:35.823Z,97268.03
2023-04-14T08:37:54.335Z,97261.13
2023-04-14T08:40:25.293Z,97265.44
2023-04-14T08:42:52.171Z,97263.25
2023-04-14T08:45:23.156Z,97240.34
2023-04-14T08:47:53.192Z,97255.56
2023-04-14T08:50:25.833Z,97242.84
2023-04-14T08:52:57.074Z,97247.72
2023-04-14T08:55:25.833Z,97266.03
2023-04-14T08:57:52.934Z,97263.56
2023-04-14T09:00:25.141Z,97259.03
2023-04-14T09:02:55.627Z,97255.81
2023-04-14T09:05:22.862Z,97247.94
2023-04-14T09:07:53.538Z,97244.94
2023-04-14T09:10:22.142Z,97251.41
2023-04-14T09:12:49.931Z,97249.19
2023-04-14T09:15:16.974Z,97263.56
2023-04-14T09:17:43.929Z,97239.41
2023-04-14T09:20:36.794Z,97262.06
2023-04-14T09:22:58.609Z,97272.59
2023-04-14T09:25:25.353Z,97252.66
2023-04-14T09:27:52.215Z,97254.78
2023-04-14T09:30:20.197Z,97251.53
2023-04-14T09:32:53.543Z,97249.50
2023-04-14T09:35:23.149Z,97233.78
2023-04-14T09:37:52.762Z,97240.63
2023-04-14T09:40:30.612Z,97234.06
2023-04-14T09:42:57.775Z,97223.09
2023-04-14T09:45:44.904Z,97226.53
2023-04-14T09:48:15.291Z,97224.03
2023-04-14T09:50:58.615Z,97231.69
2023-04-14T09:53:41.186Z,97223.88
2023-04-14T09:56:10.590Z,97203.31
2023-04-14T09:58:40.463Z,97209.06
2023-04-14T10:01:21.665Z,97213.38
2023-04-14T10:03:52.098Z,97207.41
2023-04-14T10:06:21.423Z,97207.69
2023-04-14T10:08:52.936Z,97201.13
2023-04-14T10:11:21.462Z,97195.97
2023-04-14T10:13:51.033Z,97201.13
2023-04-14T10:16:18.039Z,97203.16
2023-04-14T10:18:44.850Z,97205.63
2023-04-14T10:21:11.662Z,97196.22
2023-04-14T10:23:39.388Z,97185.91
2023-04-14T10:26:07.434Z,97181.44
2023-04-14T10:28:35.922Z,97182.53
2023-04-14T10:31:04.986Z,97168.88
2023-04-14T10:33:31.788Z,97158.19
2023-04-14T10:36:02.178Z,97157.44
2023-04-14T10:38:42.528Z,97144.75
2023-04-14T10:41:10.656Z,97148.56
2023-04-14T10:43:38.216Z,97152.13
2023-04-14T10:46:07.054Z,97140.75
2023-04-14T10:48:41.378Z,97141.22
2023-04-14T10:51:10.605Z,97156.19
2023-04-14T10:53:45.187Z,97149.72
2023-04-14T10:56:12.085Z,97143.22
2023-04-14T10:58:38.794Z,97136.56
2023-04-14T11:01:26.084Z,97124.25
2023-04-14T11:03:55.044Z,97129.72
2023-04-14T11:06:57.219Z,97137.13
2023-04-14T11:09:32.735Z,97127.00
2023-04-14T11:12:21.662Z,97127.38
2023-04-14T11:14:48.213Z,97124.81
2023-04-14T11:17:23.369Z,97128.81
2023-04-14T11:19:55.187Z,97127.25
2023-04-14T11:22:50.757Z,97126.56
2023-04-14T11:25:24.074Z,97127.94
2023-04-14T11:27:53.815Z,97118.59
2023-04-14T11:30:23.447Z,97119.50
2023-04-14T11:32:54.872Z,97093.63
2023-04-14T11:35:24.267Z,97090.78
2023-04-14T11:37:58.501Z,97087.44
2023-04-14T11:40:27.278Z,97076.72
2023-04-14T11:42:56.352Z,97088.13
2023-04-14T11:45:27.762Z,97068.84
2023-04-14T11:48:02.462Z,97068.56
2023-04-14T11:50:34.064Z,97070.47
2023-04-14T11:53:01.041Z,97057.34
2023-04-14T11:55:28.275Z,97052.91
2023-04-14T11:57:55.996Z,97037.44
2023-04-14T12:00:22.820Z,97028.94
2023-04-14T12:02:51.346Z,97028.56
2023-04-14T12:05:25.440Z,97020.31
2023-04-14T12:07:59.149Z,97032.66
2023-04-14T12:10:26.687Z,97027.56
2023-04-14T12:13:08.009Z,97008.75
2023-04-14T12:15:42.267Z,97008.19
2023-04-14T12:18:11.602Z,97008.91
2023-04-14T12:20:55.766Z,97004.88
2023-04-14T12:23:23.482Z,97003.22
2023-04-14T12:25:51.475Z,97002.97
2023-04-14T12:28:28.965Z,96996.72
2023-04-14T12:31:04.077Z,96991.44
2023-04-14T12:33:33.810Z,96992.16
2023-04-14T12:36:09.770Z,96972.03
2023-04-14T12:38:36.332Z,96965.34
2023-04-14T12:41:03.075Z,96978.63
2023-04-14T12:43:36.712Z,96961.97
2023-04-14T12:46:04.644Z,96967.09
2023-04-14T12:48:43.712Z,96949.81
2023-04-14T12:51:14.744Z,96947.81
2023-04-14T12:53:42.750Z,96947.47
2023-04-14T12:56:10.448Z,96945.47
2023-04-14T12:58:41.758Z,96939.06
2023-04-14T13:01:10.232Z,96913.91
2023-04-14T13:03:46.509Z,96916.34
2023-04-14T13:06:17.061Z,96925.09
2023-04-14T13:08:48.435Z,96905.44
2023-04-14T13:11:16.105Z,96919.56
2023-04-14T13:13:44.376Z,96913.69
2023-04-14T13:16:15.039Z,96899.06
2023-04-14T13:18:43.412Z,96906.56
2023-04-14T13:21:10.266Z,96889.69
2023-04-14T13:23:36.842Z,96887.50
2023-04-14T13:26:03.742Z,96874.09
2023-04-14T13:28:30.326Z,96861.41
2023-04-14T13:30:57.646Z,96861.25
2023-04-14T13:33:25.601Z,96839.88
2023-04-14T13:35:55.428Z,96843.53
2023-04-14T13:38:25.581Z,96805.59
2023-04-14T13:40:53.030Z,96810.41
2023-04-14T13:43:19.606Z,96805.31
2023-04-14T13:45:49.170Z,96814.16
2023-04-14T13:48:15.861Z,96824.97
2023-04-14T13:50:42.337Z,96818.25
2023-04-14T13:53:09.157Z,96827.84
2023-04-14T13:55:36.223Z,96830.09
2023-04-14T13:58:02.897Z,96819.88
2023-04-14T14:00:29.470Z,96803.31
2023-04-14T14:02:56.174Z,96814.97
2023-04-14T14:05:26.359Z,96820.09
2023-04-14T14:07:56.602Z,96788.19
2023-04-14T14:10:26.239Z,96803.16
2023-04-14T14:12:54.362Z,96789.28
2023-04-14T14:15:21.347Z,96775.38
2023-04-14T14:17:48.546Z,96784.56
2023-04-14T14:20:15.058Z,96765.34
2023-04-14T14:22:41.726Z,96758.88
2023-04-14T14:25:19.282Z,96758.94
2023-04-14T14:27:55.221Z,96769.41
2023-04-14T14:30:23.408Z,96751.75
2023-04-14T14:32:52.804Z,96738.06
2023-04-14T14:35:19.309Z,96739.84
2023-04-14T14:37:45.821Z,96712.09
2023-04-14T14:40:15.794Z,96698.66
2023-04-14T14:42:45.614Z,96719.91
2023-04-14T14:45:12.589Z,96708.47
2023-04-14T14:47:39.398Z,96708.69
2023-04-14T14:50:08.620Z,96699.59
2023-04-14T14:52:35.394Z,96709.28
2023-04-14T14:55:03.072Z,96714.41
2023-04-14T14:57:30.430Z,96710.56
2023-04-14T14:59:57.399Z,96696.13
2023-04-14T15:02:25.496Z,96710.75
2023-04-14T15:04:54.705Z,96703.00
2023-04-14T15:07:24.184Z,96705.00
2023-04-14T15:09:51.579Z,96706.16
2023-04-14T15:12:19.313Z,96698.72
2023-04-14T15:14:45.946Z,96721.22
2023-04-14T15:17:12.395Z,96709.91
2023-04-14T15:19:38.875Z,96700.13
2023-04-14T15:22:05.495Z,96727.91
2023-04-14T15:24:31.940Z,96706.28
2023-04-14T15:26:58.431Z,96721.78
2023-04-14T15:29:25.835Z,96715.69
2023-04-14T15:31:53.474Z,96708.59
2023-04-14T15:34:24.238Z,96670.66
2023-04-14T15:36:53.230Z,96715.72
2023-04-14T15:39:19.718Z,96702.28
2023-04-14T15:41:47.603Z,96708.19
2023-04-14T15:44:14.240Z,96705.13
2023-04-14T15:46:40.662Z,96695.38
2023-04-14T15:49:07.096Z,96704.97
2023-04-14T15:51:34.805Z,96710.09
2023-04-14T15:54:01.950Z,96722.75
2023-04-14T15:56:28.840Z,96733.75
2023-04-14T15:58:55.298Z,96734.97
2023-04-14T16:01:24.804Z,96734.16
2023-04-14T16:03:52.996Z,96733.34
2023-04-14T16:06:19.542Z,96720.25
2023-04-14T16:08:46.090Z,96730.47
2023-04-14T16:11:19.706Z,96729.19
2023-04-14T16:13:46.379Z,96727.16
2023-04-14T16:16:15.555Z,96718.19
2023-04-14T16:18:42.425Z,96707.00
2023-04-14T16:21:08.922Z,96692.31
2023-04-14T16:23:35.757Z,96689.47
2023-04-14T16:26:02.222Z,96706.97
2023-04-14T16:28:28.743Z,96700.19
2023-04-14T16:30:59.282Z,96684.06
2023-04-14T16:33:28.979Z,96698.78
2023-04-14T16:35:58.562Z,96673.06
2023-04-14T16:38:25.052Z,96682.47
2023-04-14T16:40:57.667Z,96695.03
2023-04-14T16:43:26.253Z,96693.22
2023-04-14T16:45:53.638Z,96704.63
2023-04-14T16:48:20.221Z,96701.84
2023-04-14T16:50:49.308Z,96708.38
2023-04-14T16:53:15.924Z,96720.69
2023-04-14T16:55:42.622Z,96724.09
2023-04-14T16:58:09.780Z,96726.53
2023-04-14T17:00:36.970Z,96741.53
2023-04-14T17:03:03.659Z,96748.84
2023-04-14T17:05:30.285Z,96743.34
2023-04-14T17:07:56.857Z,96750.09
2023-04-14T17:10:29.012Z,96767.59
2023-04-14T17:13:24.429Z,96767.44
2023-04-14T17:15:58.814Z,96752.63
2023-04-14T17:18:34.521Z,96755.59
2023-04-14T17:21:01.030Z,96754.56
2023-04-14T17:23:27.684Z,96746.00
2023-04-14T17:26:00.899Z,96753.31
2023-04-14T17:28:27.699Z,96747.00
2023-04-14T17:30:57.421Z,96759.47
2023-04-14T17:33:27.200Z,96743.78
2023-04-14T17:35:55.521Z,96760.72
2023-04-14T17:38:24.125Z,96762.31
2023-04-14T17:40:52.611Z,96767.25
2023-04-14T17:43:19.332Z,96760.31
2023-04-14T17:45:50.217Z,96736.44
2023-04-14T17:48:17.969Z,96742.97
2023-04-14T17:50:45.249Z,96766.28
2023-04-14T17:53:13.521Z,96755.44
2023-04-14T17:55:40.632Z,96773.16
2023-04-14T17:58:09.757Z,96777.69
2023-04-14T18:03:30.770Z,96789.44
2023-04-14T18:05:57.487Z,96786.94
2023-04-14T18:08:27.017Z,96792.41
2023-04-14T18:10:58.542Z,96803.19
2023-04-14T18:13:27.691Z,96799.97
2023-04-14T18:15:57.461Z,96805.34
2023-04-14T18:18:27.465Z,96809.53
2023-04-14T18:20:57.314Z,96809.03
2023-04-14T18:23:24.702Z,96810.22
2023-04-14T18:28:32.610Z,96824.41
2023-04-14T18:31:09.166Z,96827.59
2023-04-14T18:33:36.280Z,96809.53
2023-04-14T18:36:03.492Z,96846.88
2023-04-14T18:38:30.043Z,96835.03
2023-04-14T18:41:21.387Z,96840.31
2023-04-14T18:43:48.028Z,96839.84
2023-04-14T18:46:14.471Z,96846.50
2023-04-14T18:48:41.546Z,96844.81
2023-04-14T18:51:10.158Z,96860.88
2023-04-14T18:53:36.756Z,96855.75
2023-04-14T18:56:03.641Z,96864.06
2023-04-14T18:58:30.478Z,96875.41
2023-04-14T19:00:57.341Z,96875.16
2023-04-14T19:03:27.002Z,96872.88
2023-04-14T19:05:55.812Z,96872.81
2023-04-14T19:08:22.398Z,96888.38
2023-04-14T19:10:49.090Z,96895.09
2023-04-14T19:13:16.083Z,96894.53
2023-04-14T19:15:42.850Z,96906.19
2023-04-14T19:18:10.381Z,96894.94
2023-04-14T19:20:37.823Z,96910.41
2023-04-14T19:23:04.457Z,96915.97
2023-04-14T19:25:31.111Z,96913.31
2023-04-14T19:27:58.489Z,96911.22
2023-04-14T19:30:29.016Z,96924.19
2023-04-14T19:32:58.573Z,96921.59
2023-04-14T19:36:06.906Z,96922.00
2023-04-14T19:38:33.468Z,96923.25
2023-04-14T19:41:00.243Z,96929.38
2023-04-14T19:43:27.256Z,96923.38
2023-04-14T19:46:02.902Z,96933.00
2023-04-14T19:48:29.421Z,96942.41
2023-04-14T19:50:59.262Z,96933.38
2023-04-14T19:53:27.318Z,96925.66
2023-04-14T19:55:57.869Z,96933.44
2023-04-14T19:58:30.134Z,96938.63
2023-04-14T20:00:57.503Z,96933.22
2023-04-14T20:03:27.264Z,96938.75
2023-04-14T20:05:56.762Z,96920.72
2023-04-14T20:08:28.448Z,96935.81
2023-04-14T20:10:58.096Z,96934.16
2023-04-14T20:13:30.552Z,96925.53
2023-04-14T20:15:57.030Z,96953.91
2023-04-14T20:18:24.810Z,96940.78
2023-04-14T20:20:51.424Z,96951.81
2023-04-14T20:23:17.981Z,96959.81
2023-04-14T20:25:45.608Z,96952.63
2023-04-14T20:28:12.367Z,96948.34
2023-04-14T20:30:38.896Z,96948.00
2023-04-14T20:33:05.918Z,96960.84
2023-04-14T20:35:36.005Z,96951.91
2023-04-14T20:38:02.778Z,96968.63
2023-04-14T20:40:30.107Z,96953.22
2023-04-14T20:42:57.747Z,96958.97
2023-04-14T20:45:24.814Z,96966.22
2023-04-14T20:47:51.611Z,96970.25
2023-04-14T20:50:18.714Z,96960.75
2023-04-14T20:52:45.731Z,96982.81
2023-04-14T20:55:13.500Z,96974.88
2023-04-14T20:57:43.285Z,96973.19
2023-04-14T21:00:10.308Z,96971.25
2023-04-14T21:02:37.461Z,96977.22
2023-04-14T21:05:04.900Z,96986.31
2023-04-14T21:07:31.461Z,96981.97
2023-04-14T21:10:01.854Z,96972.75
2023-04-14T21:12:35.437Z,96979.72
2023-04-14T21:15:48.165Z,96986.81
2023-04-14T21:17:51.220Z,96985.81
2023-04-14T21:20:17.695Z,96980.50
2023-04-14T21:22:44.120Z,96985.03
2023-04-14T21:25:10.525Z,96986.13
2023-04-14T21:27:37.122Z,96995.78
2023-04-14T21:30:04.642Z,96984.22
2023-04-14T21:32:31.172Z,96985.25
2023-04-14T21:35:00.403Z,96981.56
2023-04-14T21:37:41.015Z,96999.53
2023-04-14T21:40:08.043Z,96997.28
2023-04-14T21:42:34.550Z,97007.78
2023-04-14T21:45:01.112Z,97009.44
2023-04-14T21:47:31.956Z,96994.34
2023-04-14T21:50:01.288Z,97007.09
2023-04-14T21:52:27.781Z,96999.03
2023-04-14T21:54:54.285Z,96999.41
2023-04-14T21:57:48.109Z,97001.84
2023-04-14T22:03:19.469Z,97003.16
2023-04-14T22:05:46.012Z,97006.44
2023-04-14T22:08:12.492Z,97010.84
2023-04-14T22:10:43.168Z,97017.03
2023-04-14T22:13:10.137Z,97009.78
2023-04-14T22:15:36.701Z,97021.97
2023-04-14T22:18:03.290Z,97018.31
2023-04-14T22:20:31.138Z,97026.00
2023-04-14T22:22:58.010Z,97040.03
2023-04-14T22:25:24.920Z,97037.94
2023-04-14T22:27:51.528Z,97047.88
2023-04-14T22:30:18.102Z,97034.84
2023-04-14T22:32:44.658Z,97043.69
2023-04-14T22:35:11.126Z,97040.03
2023-04-14T22:37:37.622Z,97058.28
2023-04-14T22:40:04.496Z,97056.00
2023-04-14T22:42:33.142Z,97047.69
2023-04-14T22:44:59.604Z,97009.78
2023-04-14T22:47:26.170Z,97036.66
2023-04-14T22:49:52.653Z,97056.00
2023-04-14T22:52:19.502Z,97064.09
2023-04-14T22:54:46.590Z,97064.47
2023-04-14T22:57:13.098Z,97066.03
2023-04-14T22:59:39.603Z,97073.94
2023-04-14T23:02:07.183Z,97076.84
2023-04-14T23:04:34.584Z,97057.97
2023-04-14T23:07:01.215Z,97065.72
2023-04-14T23:09:30.503Z,97067.47
2023-04-14T23:11:58.033Z,97069.38
2023-04-14T23:14:25.068Z,97061.00
2023-04-14T23:16:51.898Z,97059.78
2023-04-14T23:19:19.705Z,97071.47
2023-04-14T23:21:48.247Z,97063.63
2023-04-14T23:24:14.758Z,97063.00
2023-04-14T23:26:41.220Z,97067.56
2023-04-14T23:29:08.140Z,97051.69
2023-04-14T23:31:38.161Z,97059.09
2023-04-14T23:34:09.205Z,97062.00
2023-04-14T23:36:36.985Z,97073.75
2023-04-14T23:39:06.288Z,97069.47
2023-04-14T23:41:32.848Z,97070.03
2023-04-14T23:43:59.292Z,97064.91
2023-04-14T23:46:26.363Z,97080.31
2023-04-14T23:48:53.463Z,97074.84
2023-04-14T23:51:20.999Z,97075.66
2023-04-14T23:53:54.613Z,97083.06
2023-04-14T23:56:21.368Z,97079.88
2023-04-14T23:58:48.477Z,97081.88
